Aérodrome :
LOGIN :

S'inscrire | Disclaimer

   EN    FR    IT 

 










Légende :    VFR   VFR Marginal   IFR   IFR Intensif   IFR Très Intensif
Visi : 
Plafond : 
>= 8 km
>= 3000ft
5 à 8 km
1000 à 3000 ft
1500m à 5 km
500 à 1000 ft
800 à 1500m
200 à 500 ft
< 800m
< 200 ft
Symboles :   Orages  Brouillard  Fortes neiges  Fortes précipitations  Vent > 20 kt
SIGMETs :   Divers  Orages  Givrage  Turbulence  Onde Orograph.  Cendres Volcan.






- Altitude de l'aérodrome : 574 ft
- Code IATA : TEQ


LTBU - Corlu

DERNIER METAR :
  • 290250Z 34002KT 9999 FEW035 18/16 Q1012 RMK RWY22 32001KT

METARs EXPIRÉS :
  • 290220Z 33004KT 9999 FEW040 18/15 Q1012
  • 290150Z 34004KT CAVOK 17/16 Q1012 RMK RWY22 33004KT
  • 290120Z 33003KT CAVOK 16/15 Q1012 RMK RWY22 32002KT
  • 290050Z 04004KT CAVOK 17/16 Q1013 RMK RWY22 00000KT
  • 290020Z VRB02KT CAVOK 17/16 Q1013

TAF TAF LTBU
Valide du 29 à 00h jusqu'au 30 à 00h UTC


282240Z 2900/2924 22007KT 9999 SCT035 SCT100
PROB30
TEMPO 2903/2906 -TSRA FEW017CB BKN025
BECMG 2906/2909 23022G32KT
PROB40
TEMPO 2909/2912 -TSRA FEW018CB BKN025
BECMG 2914/2917 26008KT



MET'MAP, la Météo Aéronautique d'un coup d'oeil ! - Copyright ORBIFLY Décembre 2007 - Disclaimer

ORBIFLY MET'MAP TEAM :

Programmation & Développement : Alexandra Zaïnal
Sur une idée originale de : Baudouin d'Aumeries
Assistance à la programmation : Marc-Olivier Méhu
Soutien technique & logistique : Manuel Goepfert

Contact : metmap@orbifly.com




SOURCES & CREDITS :

   NOAA